Decoded Metar for KMHL ( in ) (IATA:) | Meteo·Mobile Aviation Weather
aviador You're here:

KMHL Decoded Metar

in
Report Time2019-06-26 21:55:00
UTC Time2019-06-26 21:54:49
Flight Rules vfr VFR
Wind290° at 08 kt
W.Decomp.*RWY 27: 7.5 kt HW 2.7 kt RCW
RWY 36: 2.7 kt HW 7.5 kt LCW
Visibility9999 m
Phenomena:N/A
Clouds:N/A
Expected CloudBase > 4,000 ft AGL from Temp-Dew spread
CeilingNone
Temp30°C
Dew Point20°C (55% RH)
Heat Index31.9°C
QNH1017 hPa
Raw Report
KMHL 262155Z AUTO 29008KT 10SM CLR 30/20 A3002 RMK AO2 TSNO=

Extra information for KMHL:More info

Social comments